createdAt,value
2023-08-11T00:00:39.736Z,101458.75
2023-08-11T00:03:07.930Z,101465.63
2023-08-11T00:05:38.627Z,101464.25
2023-08-11T00:10:55.102Z,101461.28
2023-08-11T00:13:23.356Z,101466.25
2023-08-11T00:15:51.121Z,101457.44
2023-08-11T00:18:18.941Z,101460.75
2023-08-11T00:20:47.942Z,101464.59
2023-08-11T00:23:17.111Z,101467.06
2023-08-11T00:25:45.465Z,101480.31
2023-08-11T00:28:13.163Z,101467.91
2023-08-11T00:30:41.296Z,101468.47
2023-08-11T00:33:09.095Z,101472.03
2023-08-11T00:35:37.303Z,101468.19
2023-08-11T00:38:06.052Z,101464.09
2023-08-11T00:40:35.250Z,101458.06
2023-08-11T00:43:03.397Z,101463.31
2023-08-11T00:45:31.502Z,101467.16
2023-08-11T00:47:59.974Z,101470.19
2023-08-11T00:50:28.435Z,101468.00
2023-08-11T00:52:56.817Z,101478.72
2023-08-11T00:55:24.604Z,101481.19
2023-08-11T00:57:54.122Z,101481.78
2023-08-11T01:00:22.461Z,101475.69
2023-08-11T01:02:50.723Z,101483.16
2023-08-11T01:05:20.289Z,101477.13
2023-08-11T01:07:58.296Z,101489.53
2023-08-11T01:10:35.210Z,101481.53
2023-08-11T01:13:14.436Z,101485.09
2023-08-11T01:15:47.377Z,101484.53
2023-08-11T01:18:16.559Z,101484.25
2023-08-11T01:20:44.672Z,101485.38
2023-08-11T01:23:20.460Z,101479.28
2023-08-11T01:25:49.121Z,101482.63
2023-08-11T01:28:17.098Z,101476.56
2023-08-11T01:30:45.432Z,101480.16
2023-08-11T01:33:13.246Z,101480.13
2023-08-11T01:35:42.583Z,101476.28
2023-08-11T01:38:10.964Z,101478.78
2023-08-11T01:40:41.350Z,101483.47
2023-08-11T01:43:12.461Z,101480.72
2023-08-11T01:45:41.422Z,101478.22
2023-08-11T01:48:10.796Z,101476.59
2023-08-11T01:50:40.200Z,101474.09
2023-08-11T01:53:09.010Z,101466.94
2023-08-11T01:55:37.759Z,101474.94
2023-08-11T01:58:07.620Z,101469.16
2023-08-11T02:00:35.839Z,101474.41
2023-08-11T02:03:03.973Z,101471.91
2023-08-11T02:05:32.101Z,101464.75
2023-08-11T02:08:01.386Z,101475.50
2023-08-11T02:10:29.315Z,101479.63
2023-08-11T02:12:57.531Z,101488.72
2023-08-11T02:15:26.851Z,101481.00
2023-08-11T02:17:55.313Z,101483.78
2023-08-11T02:20:24.549Z,101483.22
2023-08-11T02:22:54.322Z,101479.06
2023-08-11T02:25:23.138Z,101481.31
2023-08-11T02:27:51.314Z,101483.19
2023-08-11T02:30:19.813Z,101477.16
2023-08-11T02:32:49.093Z,101474.97
2023-08-11T02:35:19.034Z,101489.00
2023-08-11T02:37:47.195Z,101477.16
2023-08-11T02:40:16.156Z,101482.94
2023-08-11T02:42:49.597Z,101479.63
2023-08-11T02:45:17.742Z,101475.25
2023-08-11T02:47:45.497Z,101485.41
2023-08-11T02:50:15.505Z,101479.34
2023-08-11T02:52:43.592Z,101473.56
2023-08-11T02:55:12.481Z,101474.38
2023-08-11T02:57:40.607Z,101469.97
2023-08-11T03:00:14.322Z,101475.47
2023-08-11T03:02:42.765Z,101479.34
2023-08-11T03:05:12.915Z,101474.38
2023-08-11T03:07:42.934Z,101475.75
2023-08-11T03:10:11.426Z,101475.44
2023-08-11T03:12:39.612Z,101469.38
2023-08-11T03:15:09.372Z,101473.25
2023-08-11T03:17:37.908Z,101471.03
2023-08-11T03:20:11.789Z,101466.34
2023-08-11T03:22:39.914Z,101471.03
2023-08-11T03:25:12.034Z,101468.28
2023-08-11T03:27:43.706Z,101468.53
2023-08-11T03:30:13.141Z,101472.97
2023-08-11T03:32:41.476Z,101468.53
2023-08-11T03:35:10.159Z,101469.66
2023-08-11T03:37:37.914Z,101472.94
2023-08-11T03:40:10.620Z,101460.03
2023-08-11T03:42:39.700Z,101459.72
2023-08-11T03:45:09.003Z,101455.88
2023-08-11T03:47:36.791Z,101463.00
2023-08-11T03:50:04.799Z,101446.72
2023-08-11T03:52:33.262Z,101461.31
2023-08-11T03:55:01.068Z,101469.88
2023-08-11T03:57:29.232Z,101466.31
2023-08-11T03:59:58.585Z,101462.44
2023-08-11T04:02:27.623Z,101462.41
2023-08-11T04:04:55.439Z,101459.66
2023-08-11T04:07:23.557Z,101461.31
2023-08-11T04:09:51.311Z,101462.94
2023-08-11T04:12:19.084Z,101476.72
2023-08-11T04:14:47.138Z,101459.63
2023-08-11T04:17:17.669Z,101460.47
2023-08-11T04:19:45.874Z,101473.16
2023-08-11T04:22:15.962Z,101467.91
2023-08-11T04:24:46.789Z,101465.16
2023-08-11T04:27:15.327Z,101472.59
2023-08-11T04:29:43.079Z,101465.69
2023-08-11T04:34:40.351Z,101476.13
2023-08-11T04:37:09.895Z,101471.16
2023-08-11T04:39:38.138Z,101472.28
2023-08-11T04:42:06.898Z,101468.16
2023-08-11T04:44:35.321Z,101478.63
2023-08-11T04:47:03.356Z,101473.38
2023-08-11T04:49:33.007Z,101477.00
2023-08-11T04:52:02.139Z,101474.53
2023-08-11T04:54:30.310Z,101486.38
2023-08-11T04:56:58.272Z,101481.97
2023-08-11T04:59:26.530Z,101492.72
2023-08-11T05:01:56.404Z,101485.00
2023-08-11T05:04:24.485Z,101491.03
2023-08-11T05:06:52.342Z,101487.41
2023-08-11T05:09:21.970Z,101493.75
2023-08-11T05:11:49.700Z,101490.41
2023-08-11T05:14:18.848Z,101497.00
2023-08-11T05:16:47.062Z,101489.81
2023-08-11T05:19:14.845Z,101490.63
2023-08-11T05:21:43.028Z,101488.13
2023-08-11T05:24:11.483Z,101499.69
2023-08-11T05:26:41.187Z,101497.72
2023-08-11T05:29:11.890Z,101500.19
2023-08-11T05:31:39.980Z,101491.09
2023-08-11T05:34:10.805Z,101505.75
2023-08-11T05:36:38.655Z,101503.53
2023-08-11T05:39:08.180Z,101509.31
2023-08-11T05:41:35.922Z,101505.69
2023-08-11T05:44:06.050Z,101510.88
2023-08-11T05:46:33.887Z,101503.69
2023-08-11T05:49:01.654Z,101505.59
2023-08-11T05:51:29.955Z,101502.53
2023-08-11T05:53:57.722Z,101513.22
2023-08-11T05:56:25.799Z,101509.03
2023-08-11T05:58:53.591Z,101511.78
2023-08-11T06:01:22.950Z,101511.47
2023-08-11T06:03:50.870Z,101521.88
2023-08-11T06:06:19.348Z,101519.53
2023-08-11T06:08:47.560Z,101523.59
2023-08-11T06:11:15.376Z,101527.44
2023-08-11T06:13:44.239Z,101520.50
2023-08-11T06:16:12.064Z,101526.56
2023-08-11T06:18:41.702Z,101522.09
2023-08-11T06:21:10.196Z,101527.34
2023-08-11T06:23:38.533Z,101529.25
2023-08-11T06:26:06.994Z,101532.75
2023-08-11T06:28:35.260Z,101526.91
2023-08-11T06:31:03.642Z,101529.56
2023-08-11T06:33:31.963Z,101535.31
2023-08-11T06:36:01.086Z,101538.59
2023-08-11T06:38:28.890Z,101537.47
2023-08-11T06:40:56.846Z,101533.78
2023-08-11T06:43:24.580Z,101527.91
2023-08-11T06:45:52.718Z,101529.28
2023-08-11T06:48:20.509Z,101529.47
2023-08-11T06:50:48.582Z,101539.91
2023-08-11T06:53:18.184Z,101543.44
2023-08-11T06:55:45.908Z,101545.31
2023-08-11T06:58:13.985Z,101546.06
2023-08-11T07:00:41.683Z,101550.13
2023-08-11T07:03:09.775Z,101554.81
2023-08-11T07:05:38.276Z,101561.78
2023-08-11T07:08:06.945Z,101566.72
2023-08-11T07:10:36.113Z,101558.88
2023-08-11T07:13:04.383Z,101565.22
2023-08-11T07:15:32.104Z,101559.03
2023-08-11T07:18:00.215Z,101567.56
2023-08-11T07:20:28.009Z,101566.13
2023-08-11T07:22:55.761Z,101565.81
2023-08-11T07:25:23.812Z,101575.72
2023-08-11T07:27:52.844Z,101567.31
2023-08-11T07:30:21.059Z,101563.06
2023-08-11T07:32:48.820Z,101570.16
2023-08-11T07:35:17.005Z,101565.97
2023-08-11T07:37:44.749Z,101567.31
2023-08-11T07:40:13.981Z,101575.00
2023-08-11T07:42:42.085Z,101574.47
2023-08-11T07:45:11.831Z,101580.38
2023-08-11T07:47:39.886Z,101581.78
2023-08-11T07:50:08.856Z,101579.47
2023-08-11T07:52:36.884Z,101587.91
2023-08-11T07:55:05.546Z,101587.69
2023-08-11T07:57:33.784Z,101579.09
2023-08-11T08:00:01.599Z,101587.91
2023-08-11T08:02:31.030Z,101583.69
2023-08-11T08:05:09.956Z,101591.34
2023-08-11T08:07:40.359Z,101590.84
2023-08-11T08:10:09.632Z,101594.03
2023-08-11T08:12:38.942Z,101596.41
2023-08-11T08:15:08.575Z,101599.81
2023-08-11T08:17:38.597Z,101595.50
2023-08-11T08:20:10.242Z,101594.34
2023-08-11T08:22:38.253Z,101597.03
2023-08-11T08:25:08.184Z,101584.16
2023-08-11T08:27:36.345Z,101594.84
2023-08-11T08:30:06.142Z,101592.81
2023-08-11T08:32:34.759Z,101593.09
2023-08-11T08:35:04.287Z,101592.25
2023-08-11T08:37:32.959Z,101593.56
2023-08-11T08:40:01.664Z,101594.81
2023-08-11T08:42:30.937Z,101605.00
2023-08-11T08:44:59.161Z,101604.38
2023-08-11T08:47:27.858Z,101607.66
2023-08-11T08:49:56.744Z,101594.66
2023-08-11T08:52:26.436Z,101587.69
2023-08-11T08:54:54.272Z,101589.91
2023-08-11T08:57:23.185Z,101603.28
2023-08-11T08:59:51.321Z,101589.47
2023-08-11T09:02:20.124Z,101612.00
2023-08-11T09:04:49.407Z,101613.03
2023-08-11T09:07:20.220Z,101603.59
2023-08-11T09:09:50.170Z,101603.78
2023-08-11T09:12:18.104Z,101599.38
2023-08-11T09:14:46.544Z,101611.00
2023-08-11T09:17:14.772Z,101614.47
2023-08-11T09:19:45.517Z,101610.53
2023-08-11T09:22:13.303Z,101614.00
2023-08-11T09:24:41.929Z,101607.41
2023-08-11T09:27:12.699Z,101600.03
2023-08-11T09:29:40.430Z,101605.63
2023-08-11T09:32:09.212Z,101608.22
2023-08-11T09:34:40.743Z,101607.88
2023-08-11T09:37:08.823Z,101606.72
2023-08-11T09:39:38.158Z,101620.56
2023-08-11T09:42:06.326Z,101627.47
2023-08-11T09:44:35.900Z,101610.03
2023-08-11T09:47:15.407Z,101617.75
2023-08-11T09:49:45.584Z,101631.69
2023-08-11T09:52:14.100Z,101607.00
2023-08-11T09:54:44.940Z,101609.16
2023-08-11T09:57:15.684Z,101617.25
2023-08-11T09:59:47.685Z,101618.47
2023-08-11T10:02:23.374Z,101634.53
2023-08-11T10:04:58.268Z,101617.38
2023-08-11T10:07:35.619Z,101622.50
2023-08-11T10:10:09.205Z,101628.88
2023-08-11T10:12:42.031Z,101616.25
2023-08-11T10:15:12.791Z,101617.06
2023-08-11T10:17:40.960Z,101614.94
2023-08-11T10:20:11.268Z,101618.38
2023-08-11T10:22:39.100Z,101614.88
2023-08-11T10:25:08.803Z,101621.69
2023-08-11T10:27:38.897Z,101620.91
2023-08-11T10:30:09.728Z,101615.44
2023-08-11T10:32:40.838Z,101593.34
2023-08-11T10:35:08.790Z,101607.06
2023-08-11T10:37:37.198Z,101617.44
2023-08-11T10:40:07.314Z,101622.25
2023-08-11T10:42:37.630Z,101621.22
2023-08-11T10:45:10.627Z,101612.63
2023-08-11T10:47:40.474Z,101594.13
2023-08-11T10:50:10.875Z,101598.78
2023-08-11T10:52:38.870Z,101600.06
2023-08-11T10:55:07.705Z,101595.81
2023-08-11T10:57:36.726Z,101596.31
2023-08-11T11:00:05.071Z,101593.00
2023-08-11T11:02:36.798Z,101600.06
2023-08-11T11:05:08.940Z,101606.53
2023-08-11T11:07:40.016Z,101581.66
2023-08-11T11:10:09.810Z,101582.13
2023-08-11T11:12:37.488Z,101593.56
2023-08-11T11:15:06.572Z,101590.41
2023-08-11T11:17:34.453Z,101591.47
2023-08-11T11:20:03.676Z,101586.81
2023-08-11T11:22:33.326Z,101585.63
2023-08-11T11:25:03.870Z,101585.03
2023-08-11T11:27:32.640Z,101583.41
2023-08-11T11:30:00.545Z,101583.41
2023-08-11T11:32:29.185Z,101579.31
2023-08-11T11:34:57.369Z,101586.09
2023-08-11T11:37:26.210Z,101572.44
2023-08-11T11:39:56.360Z,101574.38
2023-08-11T11:42:24.065Z,101573.91
2023-08-11T11:44:52.292Z,101572.56
2023-08-11T11:47:20.142Z,101584.28
2023-08-11T11:49:55.660Z,101564.72
2023-08-11T11:52:23.596Z,101566.31
2023-08-11T11:54:53.014Z,101568.63
2023-08-11T11:57:23.338Z,101550.66
2023-08-11T11:59:51.997Z,101560.91
2023-08-11T12:02:21.908Z,101567.53
2023-08-11T12:04:52.946Z,101564.47
2023-08-11T12:07:32.094Z,101560.63
2023-08-11T12:10:00.519Z,101548.47
2023-08-11T12:12:30.403Z,101533.75
2023-08-11T12:15:03.385Z,101542.63
2023-08-11T12:17:32.634Z,101545.78
2023-08-11T12:20:02.398Z,101566.28
2023-08-11T12:22:30.472Z,101555.59
2023-08-11T12:24:58.189Z,101556.22
2023-08-11T12:27:26.738Z,101551.63
2023-08-11T12:29:55.930Z,101555.22
2023-08-11T12:32:24.465Z,101550.53
2023-08-11T12:34:52.587Z,101551.50
2023-08-11T12:37:20.749Z,101564.59
2023-08-11T12:39:48.481Z,101567.47
2023-08-11T12:42:16.590Z,101566.38
2023-08-11T12:44:44.288Z,101565.94
2023-08-11T12:47:13.653Z,101571.28
2023-08-11T12:49:41.473Z,101581.34
2023-08-11T12:52:09.825Z,101576.91
2023-08-11T12:54:37.763Z,101555.59
2023-08-11T12:57:06.283Z,101561.69
2023-08-11T12:59:34.659Z,101565.03
2023-08-11T13:02:02.810Z,101562.78
2023-08-11T13:04:31.944Z,101557.34
2023-08-11T13:07:01.008Z,101558.34
2023-08-11T13:09:29.169Z,101571.56
2023-08-11T13:11:57.409Z,101565.13
2023-08-11T13:14:25.097Z,101561.78
2023-08-11T13:16:53.105Z,101564.22
2023-08-11T13:19:21.199Z,101561.94
2023-08-11T13:21:50.289Z,101565.88
2023-08-11T13:24:21.065Z,101577.09
2023-08-11T13:26:49.201Z,101568.22
2023-08-11T13:29:17.336Z,101563.59
2023-08-11T13:31:45.023Z,101562.78
2023-08-11T13:34:13.146Z,101566.97
2023-08-11T13:36:43.285Z,101554.63
2023-08-11T13:39:14.113Z,101555.53
2023-08-11T13:41:42.654Z,101542.47
2023-08-11T13:44:12.937Z,101551.44
2023-08-11T13:46:40.822Z,101539.22
2023-08-11T13:49:09.311Z,101536.75
2023-08-11T13:51:37.093Z,101546.91
2023-08-11T13:54:06.637Z,101553.56
2023-08-11T13:56:35.927Z,101562.53
2023-08-11T13:59:04.364Z,101555.75
2023-08-11T14:01:32.638Z,101549.69
2023-08-11T14:04:00.763Z,101552.78
2023-08-11T14:06:28.453Z,101552.47
2023-08-11T14:08:56.522Z,101550.50
2023-08-11T14:11:25.368Z,101546.94
2023-08-11T14:13:54.915Z,101545.13
2023-08-11T14:16:22.692Z,101539.91
2023-08-11T14:18:51.745Z,101537.63
2023-08-11T14:21:20.434Z,101531.97
2023-08-11T14:23:48.983Z,101543.19
2023-08-11T14:26:17.617Z,101531.66
2023-08-11T14:28:45.775Z,101525.41
2023-08-11T14:31:14.824Z,101525.84
2023-08-11T14:33:42.684Z,101523.09
2023-08-11T14:36:13.448Z,101527.53
2023-08-11T14:38:42.120Z,101547.41
2023-08-11T14:41:10.387Z,101541.84
2023-08-11T14:43:38.088Z,101542.88
2023-08-11T14:46:06.265Z,101543.75
2023-08-11T14:48:35.473Z,101531.41
2023-08-11T14:51:03.608Z,101548.63
2023-08-11T14:53:31.786Z,101554.66
2023-08-11T14:56:00.115Z,101540.25
2023-08-11T14:58:27.861Z,101540.34
2023-08-11T15:00:57.153Z,101532.72
2023-08-11T15:03:25.300Z,101529.09
2023-08-11T15:05:55.010Z,101526.75
2023-08-11T15:08:22.823Z,101534.00
2023-08-11T15:10:51.244Z,101526.38
2023-08-11T15:13:18.980Z,101525.91
2023-08-11T15:15:47.147Z,101525.25
2023-08-11T15:18:14.907Z,101516.88
2023-08-11T15:20:43.189Z,101530.31
2023-08-11T15:23:12.317Z,101520.91
2023-08-11T15:25:42.561Z,101516.72
2023-08-11T15:28:11.431Z,101523.59
2023-08-11T15:30:39.605Z,101521.91
2023-08-11T15:33:07.619Z,101518.34
2023-08-11T15:35:38.634Z,101512.47
2023-08-11T15:38:07.031Z,101509.38
2023-08-11T15:40:36.505Z,101509.94
2023-08-11T15:43:04.449Z,101504.16
2023-08-11T15:45:32.575Z,101508.03
2023-08-11T15:48:00.338Z,101505.16
2023-08-11T15:50:28.505Z,101505.34
2023-08-11T15:52:56.262Z,101499.16
2023-08-11T15:55:35.745Z,101487.94
2023-08-11T15:58:06.231Z,101501.25
2023-08-11T16:00:34.110Z,101491.47
2023-08-11T16:03:02.349Z,101491.75
2023-08-11T16:05:30.111Z,101481.91
2023-08-11T16:07:58.130Z,101485.00
2023-08-11T16:10:27.463Z,101485.97
2023-08-11T16:12:55.707Z,101483.19
2023-08-11T16:15:25.047Z,101477.13
2023-08-11T16:17:55.036Z,101475.81
2023-08-11T16:20:23.287Z,101477.00
2023-08-11T16:22:53.500Z,101473.91
2023-08-11T16:25:21.699Z,101473.56
2023-08-11T16:27:49.897Z,101458.13
2023-08-11T16:30:17.610Z,101460.88
2023-08-11T16:32:47.204Z,101459.84
2023-08-11T16:35:15.045Z,101467.81
2023-08-11T16:37:43.310Z,101473.31
2023-08-11T16:40:12.751Z,101462.44
2023-08-11T16:42:41.061Z,101465.94
2023-08-11T16:45:09.525Z,101457.69
2023-08-11T16:47:37.850Z,101460.41
2023-08-11T16:50:08.070Z,101457.94
2023-08-11T16:52:36.254Z,101464.47
2023-08-11T16:55:04.583Z,101468.09
2023-08-11T16:57:32.629Z,101458.06
2023-08-11T17:00:00.471Z,101451.16
2023-08-11T17:02:29.083Z,101444.16
2023-08-11T17:04:56.930Z,101442.41
2023-08-11T17:07:26.368Z,101451.66
2023-08-11T17:09:54.078Z,101437.19
2023-08-11T17:12:22.762Z,101450.16
2023-08-11T17:14:51.607Z,101445.03
2023-08-11T17:17:19.644Z,101432.72
2023-08-11T17:19:47.479Z,101444.50
2023-08-11T17:22:15.274Z,101454.91
2023-08-11T17:24:45.131Z,101446.03
2023-08-11T17:27:12.968Z,101441.75
2023-08-11T17:29:42.862Z,101447.56
2023-08-11T17:32:10.776Z,101442.56
2023-08-11T17:34:54.113Z,101447.88
2023-08-11T17:37:25.427Z,101446.38
2023-08-11T17:39:55.488Z,101438.91
2023-08-11T17:42:23.213Z,101439.97
2023-08-11T17:44:51.337Z,101420.16
2023-08-11T17:47:19.036Z,101427.00
2023-08-11T17:49:47.230Z,101424.91
2023-08-11T17:52:14.960Z,101414.16
2023-08-11T17:54:43.147Z,101414.28
2023-08-11T17:57:12.242Z,101420.56
2023-08-11T17:59:40.348Z,101421.25
2023-08-11T18:02:08.301Z,101415.88
2023-08-11T18:04:37.363Z,101413.78
2023-08-11T18:07:05.421Z,101411.75
2023-08-11T18:09:33.486Z,101416.97
2023-08-11T18:12:01.180Z,101413.44
2023-08-11T18:14:32.912Z,101410.97
2023-08-11T18:17:00.738Z,101411.53
2023-08-11T18:19:29.033Z,101416.50
2023-08-11T18:21:56.743Z,101416.88
2023-08-11T18:24:24.983Z,101425.47
2023-08-11T18:26:52.719Z,101418.78
2023-08-11T18:29:20.972Z,101411.28
2023-08-11T18:31:50.111Z,101411.03
2023-08-11T18:34:18.291Z,101407.09
2023-08-11T18:36:45.992Z,101410.94
2023-08-11T18:39:14.397Z,101411.69
2023-08-11T18:41:42.188Z,101412.06
2023-08-11T18:44:09.945Z,101413.06
2023-08-11T18:46:38.348Z,101412.31
2023-08-11T18:49:07.868Z,101416.94
2023-08-11T18:51:36.000Z,101416.66
2023-08-11T18:54:03.864Z,101421.41
2023-08-11T18:56:32.091Z,101423.72
2023-08-11T18:58:59.842Z,101426.72
2023-08-11T19:01:28.178Z,101426.38
2023-08-11T19:03:56.286Z,101433.09
2023-08-11T19:06:25.955Z,101434.94
2023-08-11T19:08:53.726Z,101425.16
2023-08-11T19:11:24.007Z,101431.88
2023-08-11T19:13:51.807Z,101431.19
2023-08-11T19:16:19.996Z,101427.16
2023-08-11T19:18:48.539Z,101425.69
2023-08-11T19:21:16.628Z,101425.06
2023-08-11T19:23:45.783Z,101428.66
2023-08-11T19:26:13.886Z,101416.38
2023-08-11T19:28:41.711Z,101420.97
2023-08-11T19:31:09.892Z,101419.66
2023-08-11T19:33:37.692Z,101412.16
2023-08-11T19:36:06.009Z,101416.44
2023-08-11T19:38:33.812Z,101413.13
2023-08-11T19:41:04.909Z,101408.22
2023-08-11T19:43:32.618Z,101407.25
2023-08-11T19:46:00.928Z,101401.38
2023-08-11T19:48:28.753Z,101405.97
2023-08-11T19:50:57.763Z,101402.69
2023-08-11T19:53:25.489Z,101413.34
2023-08-11T19:55:55.335Z,101414.97
2023-08-11T19:58:25.544Z,101420.19
2023-08-11T20:00:53.388Z,101422.34
2023-08-11T20:03:21.543Z,101416.44
2023-08-11T20:05:50.281Z,101410.84
2023-08-11T20:08:18.396Z,101407.56
2023-08-11T20:10:46.974Z,101400.38
2023-08-11T20:13:15.388Z,101407.09
2023-08-11T20:15:44.552Z,101399.22
2023-08-11T20:18:12.837Z,101401.53
2023-08-11T20:20:41.945Z,101392.69
2023-08-11T20:23:11.902Z,101388.56
2023-08-11T20:25:39.637Z,101393.66
2023-08-11T20:28:08.026Z,101393.81
2023-08-11T20:30:37.142Z,101391.34
2023-08-11T20:33:06.790Z,101391.03
2023-08-11T20:35:34.548Z,101388.91
2023-08-11T20:38:02.732Z,101394.78
2023-08-11T20:40:33.363Z,101394.63
2023-08-11T20:43:01.692Z,101396.09
2023-08-11T20:45:31.123Z,101406.25
2023-08-11T20:48:01.453Z,101406.72
2023-08-11T20:50:30.872Z,101406.72
2023-08-11T20:52:58.999Z,101406.22
2023-08-11T20:55:26.692Z,101407.72
2023-08-11T20:57:54.900Z,101404.78
2023-08-11T21:00:23.564Z,101411.81
2023-08-11T21:02:52.065Z,101408.34
2023-08-11T21:05:19.869Z,101408.34
2023-08-11T21:07:49.285Z,101412.28
2023-08-11T21:10:16.996Z,101407.84
2023-08-11T21:12:45.025Z,101404.09
2023-08-11T21:15:14.483Z,101395.41
2023-08-11T21:17:42.211Z,101391.59
2023-08-11T21:20:11.150Z,101381.63
2023-08-11T21:22:38.918Z,101384.75
2023-08-11T21:25:09.414Z,101381.78
2023-08-11T21:27:36.962Z,101381.44
2023-08-11T21:30:05.540Z,101384.53
2023-08-11T21:32:33.348Z,101387.31
2023-08-11T21:35:01.529Z,101380.41
2023-08-11T21:37:29.316Z,101383.84
2023-08-11T21:39:57.389Z,101385.00
2023-08-11T21:42:26.451Z,101393.00
2023-08-11T21:44:54.734Z,101386.28
2023-08-11T21:47:23.984Z,101400.34
2023-08-11T21:49:52.133Z,101387.41
2023-08-11T21:52:19.861Z,101388.03
2023-08-11T21:54:48.013Z,101383.81
2023-08-11T21:57:15.803Z,101382.03
2023-08-11T21:59:45.341Z,101379.56
2023-08-11T22:02:13.044Z,101372.34
2023-08-11T22:04:42.374Z,101380.19
2023-08-11T22:07:10.509Z,101381.78
2023-08-11T22:09:38.900Z,101384.41
2023-08-11T22:12:07.623Z,101388.84
2023-08-11T22:14:36.075Z,101394.41
2023-08-11T22:17:05.463Z,101383.94
2023-08-11T22:19:36.778Z,101383.94
2023-08-11T22:22:05.336Z,101386.50
2023-08-11T22:24:41.299Z,101387.16
2023-08-11T22:27:10.807Z,101386.03
2023-08-11T22:29:39.445Z,101378.31
2023-08-11T22:32:08.619Z,101378.44
2023-08-11T22:34:36.424Z,101373.03
2023-08-11T22:37:04.613Z,101370.09
2023-08-11T22:39:32.364Z,101363.69
2023-08-11T22:42:00.529Z,101361.25
2023-08-11T22:44:28.266Z,101360.22
2023-08-11T22:46:56.397Z,101362.00
2023-08-11T22:49:25.472Z,101362.66
2023-08-11T22:51:52.641Z,101363.47
2023-08-11T22:54:20.360Z,101351.69
2023-08-11T22:56:48.466Z,101356.91
2023-08-11T22:59:16.356Z,101349.19
2023-08-11T23:01:44.423Z,101346.56
2023-08-11T23:04:12.384Z,101344.63
2023-08-11T23:06:41.883Z,101340.50
2023-08-11T23:09:09.668Z,101341.66
2023-08-11T23:11:37.867Z,101340.81
2023-08-11T23:14:05.784Z,101341.31
2023-08-11T23:16:34.313Z,101343.94
2023-08-11T23:19:02.215Z,101341.28
2023-08-11T23:21:32.008Z,101344.06
2023-08-11T23:24:01.088Z,101338.81
2023-08-11T23:26:29.325Z,101344.69
2023-08-11T23:28:57.015Z,101339.13
2023-08-11T23:31:25.129Z,101346.16
2023-08-11T23:33:52.854Z,101331.94
2023-08-11T23:36:20.926Z,101337.19
2023-08-11T23:38:49.141Z,101349.44
2023-08-11T23:41:18.986Z,101353.66
2023-08-11T23:43:46.725Z,101351.28
2023-08-11T23:46:15.568Z,101347.50
2023-08-11T23:48:43.903Z,101358.09
2023-08-11T23:51:11.682Z,101347.84
2023-08-11T23:53:39.960Z,101353.38
2023-08-11T23:56:07.861Z,101351.25
2023-08-11T23:58:37.357Z,101355.97
